createdAt,value
2023-03-27T00:00:42.574Z,68.97
2023-03-27T00:03:10.981Z,68.37
2023-03-27T00:05:37.660Z,67.94
2023-03-27T00:08:04.986Z,72.12
2023-03-27T00:10:32.151Z,71.13
2023-03-27T00:12:59.148Z,71.08
2023-03-27T00:15:25.908Z,70.88
2023-03-27T00:17:52.813Z,71.76
2023-03-27T00:20:23.345Z,71.70
2023-03-27T00:22:55.361Z,70.85
2023-03-27T00:25:29.130Z,71.95
2023-03-27T00:27:59.033Z,71.58
2023-03-27T00:30:26.430Z,71.07
2023-03-27T00:32:55.984Z,70.55
2023-03-27T00:35:23.620Z,70.00
2023-03-27T00:37:50.656Z,71.00
2023-03-27T00:40:20.414Z,73.08
2023-03-27T00:42:48.485Z,73.78
2023-03-27T00:45:28.796Z,72.73
2023-03-27T00:47:58.202Z,72.61
2023-03-27T00:50:26.958Z,71.48
2023-03-27T00:52:57.091Z,71.61
2023-03-27T00:55:23.750Z,71.45
2023-03-27T00:57:52.911Z,71.21
2023-03-27T01:00:20.114Z,70.66
2023-03-27T01:02:47.841Z,72.02
2023-03-27T01:05:15.593Z,71.52
2023-03-27T01:08:01.329Z,71.60
2023-03-27T01:10:53.474Z,71.15
2023-03-27T01:13:50.618Z,71.40
2023-03-27T01:16:55.741Z,72.66
2023-03-27T01:19:29.188Z,72.65
2023-03-27T01:21:58.714Z,73.45
2023-03-27T01:24:43.689Z,72.92
2023-03-27T01:27:37.840Z,70.31
2023-03-27T01:30:12.796Z,70.67
2023-03-27T01:32:42.483Z,72.35
2023-03-27T01:35:18.063Z,71.84
2023-03-27T01:38:14.777Z,71.61
2023-03-27T01:41:26.105Z,70.56
2023-03-27T01:44:15.507Z,69.11
2023-03-27T01:46:57.705Z,68.91
2023-03-27T01:49:40.103Z,69.74
2023-03-27T01:52:22.460Z,70.15
2023-03-27T01:54:55.788Z,70.82
2023-03-27T01:57:25.408Z,72.77
2023-03-27T02:00:18.643Z,72.94
2023-03-27T02:02:48.457Z,72.53
2023-03-27T02:05:40.417Z,72.89
2023-03-27T02:08:15.813Z,73.54
2023-03-27T02:10:43.793Z,73.02
2023-03-27T02:13:18.396Z,73.39
2023-03-27T02:15:45.016Z,73.07
2023-03-27T02:18:12.946Z,73.08
2023-03-27T02:20:40.201Z,73.51
2023-03-27T02:23:07.770Z,74.23
2023-03-27T02:25:39.808Z,73.48
2023-03-27T02:28:22.820Z,73.51
2023-03-27T02:31:10.911Z,72.25
2023-03-27T02:34:00.924Z,74.11
2023-03-27T02:36:49.152Z,74.63
2023-03-27T02:39:34.167Z,73.51
2023-03-27T02:42:21.269Z,73.25
2023-03-27T02:45:13.916Z,72.86
2023-03-27T02:48:08.407Z,73.13
2023-03-27T02:50:53.837Z,72.31
2023-03-27T02:53:21.942Z,72.05
2023-03-27T02:55:51.717Z,72.83
2023-03-27T02:58:21.952Z,73.33
2023-03-27T03:00:49.103Z,72.39
2023-03-27T03:03:53.966Z,71.62
2023-03-27T03:06:21.293Z,71.77
2023-03-27T03:08:48.617Z,72.10
2023-03-27T03:11:15.829Z,71.57
2023-03-27T03:13:42.487Z,72.84
2023-03-27T03:16:10.129Z,72.15
2023-03-27T03:18:37.004Z,75.08
2023-03-27T03:21:04.836Z,74.20
2023-03-27T03:23:31.998Z,75.13
2023-03-27T03:25:58.774Z,74.09
2023-03-27T03:28:28.446Z,74.86
2023-03-27T03:30:55.609Z,75.32
2023-03-27T03:33:22.544Z,75.27
2023-03-27T03:35:50.301Z,75.21
2023-03-27T03:38:25.108Z,73.00
2023-03-27T03:40:53.614Z,76.51
2023-03-27T03:43:21.921Z,76.28
2023-03-27T03:45:48.976Z,75.93
2023-03-27T03:48:16.336Z,77.76
2023-03-27T03:50:44.366Z,76.52
2023-03-27T03:53:11.580Z,76.81
2023-03-27T03:55:38.163Z,75.97
2023-03-27T03:58:05.006Z,76.30
2023-03-27T04:00:34.602Z,76.05
2023-03-27T04:03:01.622Z,74.84
2023-03-27T04:05:28.233Z,75.12
2023-03-27T04:07:54.979Z,76.20
2023-03-27T04:10:21.676Z,77.15
2023-03-27T04:12:49.240Z,79.57
2023-03-27T04:15:16.570Z,77.71
2023-03-27T04:17:43.567Z,77.46
2023-03-27T04:20:12.834Z,77.60
2023-03-27T04:22:46.462Z,78.20
2023-03-27T04:25:14.192Z,79.72
2023-03-27T04:27:41.329Z,81.51
2023-03-27T04:30:10.782Z,79.33
2023-03-27T04:32:37.490Z,77.86
2023-03-27T04:35:04.851Z,77.96
2023-03-27T04:37:31.521Z,77.74
2023-03-27T04:39:58.589Z,77.57
2023-03-27T04:42:25.372Z,76.99
2023-03-27T04:44:53.090Z,75.88
2023-03-27T04:47:20.513Z,76.66
2023-03-27T04:49:50.817Z,75.00
2023-03-27T04:52:18.124Z,75.73
2023-03-27T04:54:45.014Z,78.24
2023-03-27T04:57:11.996Z,78.91
2023-03-27T04:59:38.659Z,77.71
2023-03-27T05:02:05.624Z,77.14
2023-03-27T05:05:36.046Z,77.72
2023-03-27T05:08:02.921Z,78.42
2023-03-27T05:10:29.679Z,79.80
2023-03-27T05:12:58.385Z,78.00
2023-03-27T05:15:25.686Z,78.37
2023-03-27T05:17:55.939Z,77.96
2023-03-27T05:20:22.705Z,78.29
2023-03-27T05:22:49.623Z,78.14
2023-03-27T05:25:16.298Z,76.41
2023-03-27T05:27:47.219Z,75.12
2023-03-27T05:30:16.092Z,74.67
2023-03-27T05:32:52.138Z,75.17
2023-03-27T05:35:20.614Z,73.18
2023-03-27T05:37:48.158Z,74.94
2023-03-27T05:40:15.552Z,74.65
2023-03-27T05:42:46.018Z,74.39
2023-03-27T05:45:13.050Z,72.45
2023-03-27T05:47:53.317Z,71.20
2023-03-27T05:50:21.388Z,71.24
2023-03-27T05:52:48.025Z,70.71
2023-03-27T05:55:17.768Z,70.54
2023-03-27T05:57:44.450Z,70.96
2023-03-27T06:00:13.980Z,71.47
2023-03-27T06:02:43.987Z,71.21
2023-03-27T06:05:13.419Z,71.96
2023-03-27T06:07:43.021Z,71.53
2023-03-27T06:10:13.803Z,71.82
2023-03-27T06:12:41.605Z,71.77
2023-03-27T06:15:09.411Z,72.08
2023-03-27T06:17:38.044Z,69.99
2023-03-27T06:20:15.446Z,68.53
2023-03-27T06:22:46.880Z,66.48
2023-03-27T06:25:14.118Z,63.87
2023-03-27T06:27:45.426Z,61.95
2023-03-27T06:30:13.271Z,60.70
2023-03-27T06:32:47.631Z,59.37
2023-03-27T06:35:14.816Z,57.11
2023-03-27T06:37:42.420Z,57.56
2023-03-27T06:40:10.275Z,56.61
2023-03-27T06:42:37.326Z,56.80
2023-03-27T06:45:05.570Z,56.13
2023-03-27T06:47:36.324Z,56.31
2023-03-27T06:50:07.571Z,55.31
2023-03-27T06:52:34.268Z,55.74
2023-03-27T06:55:00.905Z,55.27
2023-03-27T06:57:27.527Z,54.77
2023-03-27T06:59:54.132Z,54.38
2023-03-27T07:02:20.741Z,53.95
2023-03-27T07:04:57.674Z,54.30
2023-03-27T07:07:24.707Z,55.09
2023-03-27T07:09:53.694Z,55.28
2023-03-27T07:12:20.289Z,53.74
2023-03-27T07:14:46.955Z,51.81
2023-03-27T07:17:13.666Z,52.61
2023-03-27T07:19:40.393Z,52.47
2023-03-27T07:22:06.978Z,53.99
2023-03-27T07:24:33.960Z,53.17
2023-03-27T07:27:00.591Z,53.92
2023-03-27T07:29:27.220Z,54.46
2023-03-27T07:31:58.449Z,54.25
2023-03-27T07:34:27.149Z,53.67
2023-03-27T07:36:53.821Z,52.54
2023-03-27T07:39:20.617Z,53.28
2023-03-27T07:41:47.266Z,52.30
2023-03-27T07:44:13.848Z,52.00
2023-03-27T07:46:41.279Z,51.89
2023-03-27T07:49:08.759Z,52.25
2023-03-27T07:51:35.545Z,52.15
2023-03-27T07:54:04.446Z,50.54
2023-03-27T07:56:34.931Z,51.25
2023-03-27T07:59:01.673Z,51.12
2023-03-27T08:01:28.591Z,50.20
2023-03-27T08:03:55.665Z,50.69
2023-03-27T08:06:22.399Z,50.26
2023-03-27T08:08:50.927Z,50.61
2023-03-27T08:11:29.699Z,49.86
2023-03-27T08:13:57.245Z,50.71
2023-03-27T08:16:27.850Z,48.45
2023-03-27T08:18:54.730Z,49.59
2023-03-27T08:21:23.385Z,50.70
2023-03-27T08:23:50.041Z,48.50
2023-03-27T08:26:16.626Z,48.33
2023-03-27T08:28:43.657Z,47.89
2023-03-27T08:31:13.134Z,47.87
2023-03-27T08:33:40.038Z,46.68
2023-03-27T08:36:10.281Z,46.24
2023-03-27T08:38:39.565Z,46.14
2023-03-27T08:41:06.788Z,50.02
2023-03-27T08:43:39.165Z,46.24
2023-03-27T08:46:17.009Z,47.57
2023-03-27T08:49:05.639Z,45.80
2023-03-27T08:51:34.452Z,46.51
2023-03-27T08:54:08.358Z,48.22
2023-03-27T08:56:34.982Z,46.57
2023-03-27T08:59:01.802Z,45.79
2023-03-27T09:01:29.592Z,47.60
2023-03-27T09:04:01.904Z,47.79
2023-03-27T09:06:52.879Z,50.56
2023-03-27T09:09:38.687Z,51.38
2023-03-27T09:12:18.845Z,49.92
2023-03-27T09:14:48.487Z,49.05
2023-03-27T09:17:21.829Z,47.85
2023-03-27T09:20:08.828Z,47.19
2023-03-27T09:22:40.939Z,47.93
2023-03-27T09:25:24.906Z,47.15
2023-03-27T09:27:51.887Z,46.42
2023-03-27T09:30:26.653Z,44.94
2023-03-27T09:32:56.070Z,44.63
2023-03-27T09:35:23.356Z,46.83
2023-03-27T09:37:54.376Z,45.49
2023-03-27T09:40:44.567Z,43.18
2023-03-27T09:43:20.855Z,45.77
2023-03-27T09:45:49.082Z,46.37
2023-03-27T09:48:36.755Z,45.39
2023-03-27T09:51:05.260Z,44.42
2023-03-27T09:53:32.389Z,46.05
2023-03-27T09:56:05.445Z,45.27
2023-03-27T09:58:43.941Z,45.74
2023-03-27T10:01:34.539Z,45.41
2023-03-27T10:04:01.797Z,46.43
2023-03-27T10:06:29.594Z,46.83
2023-03-27T10:08:57.347Z,46.55
2023-03-27T10:11:27.792Z,45.48
2023-03-27T10:13:54.484Z,46.05
2023-03-27T10:16:21.867Z,45.79
2023-03-27T10:18:53.648Z,44.03
2023-03-27T10:21:38.879Z,45.25
2023-03-27T10:24:07.404Z,47.22
2023-03-27T10:26:35.097Z,45.37
2023-03-27T10:29:13.816Z,45.20
2023-03-27T10:31:40.534Z,46.47
2023-03-27T10:34:08.299Z,46.47
2023-03-27T10:36:36.655Z,47.16
2023-03-27T10:39:11.741Z,47.00
2023-03-27T10:41:38.404Z,46.40
2023-03-27T10:44:07.192Z,46.23
2023-03-27T10:46:38.674Z,47.12
2023-03-27T10:49:30.265Z,45.58
2023-03-27T10:52:50.490Z,46.42
2023-03-27T10:55:24.891Z,48.12
2023-03-27T10:57:53.444Z,49.06
2023-03-27T11:00:41.071Z,48.63
2023-03-27T11:03:48.807Z,49.20
2023-03-27T11:06:16.889Z,50.96
2023-03-27T11:09:16.198Z,51.23
2023-03-27T11:11:46.549Z,51.78
2023-03-27T11:14:39.309Z,50.73
2023-03-27T11:17:06.558Z,52.87
2023-03-27T11:19:48.565Z,50.30
2023-03-27T11:22:23.830Z,52.12
2023-03-27T11:24:56.141Z,52.54
2023-03-27T11:27:32.684Z,53.34
2023-03-27T11:30:08.536Z,54.07
2023-03-27T11:33:07.042Z,54.39
2023-03-27T11:35:39.285Z,56.44
2023-03-27T11:38:17.133Z,55.51
2023-03-27T11:40:45.835Z,54.71
2023-03-27T11:43:12.967Z,53.86
2023-03-27T11:45:58.135Z,55.06
2023-03-27T11:48:33.936Z,55.74
2023-03-27T11:51:10.832Z,58.71
2023-03-27T11:53:46.609Z,60.50
2023-03-27T11:56:39.908Z,61.80
2023-03-27T11:59:28.379Z,62.29
2023-03-27T12:02:25.587Z,65.83
2023-03-27T12:05:05.506Z,66.06
2023-03-27T12:07:47.658Z,68.44
2023-03-27T12:10:31.955Z,70.82
2023-03-27T12:13:02.960Z,70.60
2023-03-27T12:15:39.377Z,72.04
2023-03-27T12:18:54.466Z,74.19
2023-03-27T12:21:43.842Z,78.64
2023-03-27T12:24:58.936Z,82.31
2023-03-27T12:27:44.890Z,84.35
2023-03-27T12:30:17.528Z,86.83
2023-03-27T12:33:38.406Z,87.21
2023-03-27T12:36:06.591Z,88.18
2023-03-27T12:38:37.083Z,88.54
2023-03-27T12:41:23.385Z,89.70
2023-03-27T12:43:57.538Z,91.48
2023-03-27T12:46:24.144Z,92.93
2023-03-27T12:48:51.654Z,91.38
2023-03-27T12:51:19.946Z,93.97
2023-03-27T12:53:48.404Z,91.34
2023-03-27T12:56:18.017Z,89.68
2023-03-27T12:58:45.772Z,89.51
2023-03-27T13:01:24.231Z,88.07
2023-03-27T13:04:14.635Z,88.18
2023-03-27T13:06:51.038Z,87.93
2023-03-27T13:09:47.033Z,88.93
2023-03-27T13:12:26.511Z,87.85
2023-03-27T13:15:02.211Z,86.84
2023-03-27T13:17:49.385Z,86.69
2023-03-27T13:20:24.921Z,86.93
2023-03-27T13:23:18.218Z,86.48
2023-03-27T13:25:47.575Z,87.61
2023-03-27T13:28:25.173Z,88.04
2023-03-27T13:30:56.534Z,87.31
2023-03-27T13:33:24.366Z,87.66
2023-03-27T13:36:06.796Z,86.94
2023-03-27T13:38:52.768Z,86.16
2023-03-27T13:41:44.265Z,85.90
2023-03-27T13:44:48.157Z,88.43
2023-03-27T13:47:36.377Z,90.10
2023-03-27T13:50:35.005Z,88.12
2023-03-27T13:53:22.370Z,88.13
2023-03-27T13:56:23.153Z,87.17
2023-03-27T13:58:52.939Z,85.91
2023-03-27T14:01:42.232Z,85.47
2023-03-27T14:04:18.263Z,86.09
2023-03-27T14:06:59.849Z,87.59
2023-03-27T14:09:53.363Z,88.17
2023-03-27T14:12:35.476Z,85.85
2023-03-27T14:15:06.937Z,85.63
2023-03-27T14:18:11.996Z,83.61
2023-03-27T14:20:45.458Z,83.92
2023-03-27T14:23:23.445Z,84.21
2023-03-27T14:26:19.892Z,82.76
2023-03-27T14:28:59.535Z,83.72
2023-03-27T14:31:26.988Z,84.71
2023-03-27T14:34:30.327Z,84.18
2023-03-27T14:37:22.651Z,85.29
2023-03-27T14:39:59.419Z,85.38
2023-03-27T14:42:32.639Z,84.95
2023-03-27T14:45:33.178Z,83.89
2023-03-27T14:48:05.105Z,83.44
2023-03-27T14:50:31.901Z,82.18
2023-03-27T14:52:58.623Z,81.51
2023-03-27T14:55:29.888Z,80.72
2023-03-27T14:57:58.747Z,81.63
2023-03-27T15:00:25.791Z,81.76
2023-03-27T15:02:53.365Z,83.04
2023-03-27T15:05:22.594Z,81.87
2023-03-27T15:07:50.570Z,80.94
2023-03-27T15:10:20.878Z,81.61
2023-03-27T15:12:47.800Z,79.78
2023-03-27T15:15:39.579Z,78.99
2023-03-27T15:18:11.926Z,78.28
2023-03-27T15:20:38.617Z,79.47
2023-03-27T15:23:19.273Z,78.29
2023-03-27T15:25:56.444Z,78.91
2023-03-27T15:28:38.129Z,79.70
2023-03-27T15:31:05.026Z,79.50
2023-03-27T15:33:37.724Z,78.96
2023-03-27T15:36:06.524Z,79.14
2023-03-27T15:38:34.330Z,80.32
2023-03-27T15:41:27.151Z,79.63
2023-03-27T15:44:09.527Z,79.34
2023-03-27T15:46:49.062Z,79.62
2023-03-27T15:49:20.330Z,80.90
2023-03-27T15:51:46.955Z,78.30
2023-03-27T15:54:27.576Z,78.88
2023-03-27T15:57:10.555Z,78.37
2023-03-27T15:59:52.234Z,78.28
2023-03-27T16:02:19.831Z,78.43
2023-03-27T16:04:53.475Z,79.05
2023-03-27T16:07:43.352Z,81.44
2023-03-27T16:10:10.201Z,82.22
2023-03-27T16:12:39.769Z,83.13
2023-03-27T16:15:08.385Z,83.30
2023-03-27T16:17:41.326Z,84.45
2023-03-27T16:20:12.608Z,84.51
2023-03-27T16:22:39.466Z,84.67
2023-03-27T16:25:08.698Z,85.41
2023-03-27T16:27:42.191Z,85.64
2023-03-27T16:30:10.315Z,84.87
2023-03-27T16:32:37.120Z,83.84
2023-03-27T16:35:04.019Z,82.68
2023-03-27T16:37:30.702Z,81.37
2023-03-27T16:39:58.111Z,79.42
2023-03-27T16:42:26.355Z,78.70
2023-03-27T16:44:53.360Z,77.23
2023-03-27T16:47:20.644Z,77.11
2023-03-27T16:49:56.259Z,77.44
2023-03-27T16:52:27.344Z,77.22
2023-03-27T16:54:54.345Z,78.20
2023-03-27T16:57:21.420Z,78.07
2023-03-27T16:59:48.049Z,78.96
2023-03-27T17:02:14.671Z,79.06
2023-03-27T17:04:43.801Z,79.02
2023-03-27T17:07:10.748Z,80.45
2023-03-27T17:09:37.937Z,79.62
2023-03-27T17:12:04.714Z,79.88
2023-03-27T17:14:31.428Z,82.37
2023-03-27T17:16:58.233Z,82.42
2023-03-27T17:19:24.934Z,82.24
2023-03-27T17:21:51.619Z,81.19
2023-03-27T17:24:19.945Z,80.81
2023-03-27T17:26:46.710Z,81.33
2023-03-27T17:29:13.555Z,82.25
2023-03-27T17:31:40.422Z,81.93
2023-03-27T17:34:07.451Z,82.24
2023-03-27T17:36:41.504Z,81.62
2023-03-27T17:39:11.747Z,82.28
2023-03-27T17:41:38.432Z,83.41
2023-03-27T17:44:07.370Z,85.06
2023-03-27T17:46:34.517Z,86.62
2023-03-27T17:49:01.416Z,86.65
2023-03-27T17:51:28.108Z,85.97
2023-03-27T17:53:54.867Z,84.50
2023-03-27T17:56:21.589Z,84.09
2023-03-27T17:58:48.722Z,83.67
2023-03-27T18:01:17.623Z,83.74
2023-03-27T18:03:44.620Z,82.55
2023-03-27T18:06:11.355Z,82.33
2023-03-27T18:08:37.982Z,82.38
2023-03-27T18:11:09.046Z,82.64
2023-03-27T18:13:35.996Z,82.82
2023-03-27T18:16:06.765Z,82.09
2023-03-27T18:18:34.121Z,82.12
2023-03-27T18:21:01.682Z,82.38
2023-03-27T18:23:28.438Z,81.88
2023-03-27T18:25:55.787Z,80.43
2023-03-27T18:28:23.912Z,81.92
2023-03-27T18:31:00.808Z,83.46
2023-03-27T18:33:28.149Z,86.25
2023-03-27T18:35:56.184Z,89.01
2023-03-27T18:38:24.073Z,88.83
2023-03-27T18:40:50.858Z,88.17
2023-03-27T18:43:17.587Z,88.65
2023-03-27T18:45:44.296Z,87.33
2023-03-27T18:48:11.057Z,88.87
2023-03-27T18:50:37.811Z,88.79
2023-03-27T18:53:04.809Z,89.97
2023-03-27T18:55:32.390Z,89.13
2023-03-27T18:57:59.037Z,87.30
2023-03-27T19:00:26.174Z,86.63
2023-03-27T19:02:52.936Z,85.53
2023-03-27T19:05:19.773Z,84.52
2023-03-27T19:07:46.902Z,84.82
2023-03-27T19:10:14.106Z,84.65
2023-03-27T19:12:40.893Z,85.63
2023-03-27T19:15:19.392Z,84.97
2023-03-27T19:17:49.044Z,85.01
2023-03-27T19:20:15.724Z,84.15
2023-03-27T19:22:42.440Z,84.02
2023-03-27T19:25:09.651Z,84.43
2023-03-27T19:27:38.605Z,84.13
2023-03-27T19:30:07.440Z,84.64
2023-03-27T19:32:34.168Z,86.81
2023-03-27T19:35:01.193Z,87.48
2023-03-27T19:37:29.727Z,86.16
2023-03-27T19:39:56.436Z,86.14
2023-03-27T19:42:23.023Z,85.48
2023-03-27T19:44:49.708Z,84.39
2023-03-27T19:47:16.383Z,84.76
2023-03-27T19:49:43.124Z,84.49
2023-03-27T19:52:09.806Z,84.29
2023-03-27T19:54:36.530Z,82.47
2023-03-27T19:57:03.402Z,82.61
2023-03-27T19:59:31.308Z,81.92
2023-03-27T20:01:58.743Z,79.68
2023-03-27T20:04:25.414Z,79.25
2023-03-27T20:06:52.168Z,80.57
2023-03-27T20:09:19.144Z,80.21
2023-03-27T20:11:46.715Z,80.13
2023-03-27T20:14:13.466Z,79.38
2023-03-27T20:16:40.253Z,79.30
2023-03-27T20:19:07.142Z,78.46
2023-03-27T20:21:37.627Z,78.33
2023-03-27T20:24:05.754Z,79.07
2023-03-27T20:26:39.000Z,79.03
2023-03-27T20:29:07.519Z,80.37
2023-03-27T20:31:34.291Z,80.59
2023-03-27T20:34:01.181Z,82.10
2023-03-27T20:36:28.198Z,81.51
2023-03-27T20:38:56.436Z,82.34
2023-03-27T20:41:23.063Z,82.52
2023-03-27T20:43:50.954Z,82.75
2023-03-27T20:46:18.051Z,83.55
2023-03-27T20:48:53.666Z,83.86
2023-03-27T20:51:24.405Z,83.66
2023-03-27T20:53:56.169Z,84.54
2023-03-27T20:56:23.157Z,86.23
2023-03-27T20:58:49.970Z,86.74
2023-03-27T21:01:19.308Z,84.05
2023-03-27T21:03:49.860Z,83.50
2023-03-27T21:06:18.869Z,85.55
2023-03-27T21:08:46.053Z,86.44
2023-03-27T21:11:13.339Z,85.65
2023-03-27T21:13:40.375Z,86.31
2023-03-27T21:16:07.414Z,86.24
2023-03-27T21:18:34.280Z,85.77
2023-03-27T21:21:01.104Z,85.44
2023-03-27T21:23:27.734Z,85.88
2023-03-27T21:25:55.317Z,85.56
2023-03-27T21:28:22.013Z,85.28
2023-03-27T21:30:48.728Z,86.03
2023-03-27T21:33:16.410Z,86.09
2023-03-27T21:35:45.811Z,88.02
2023-03-27T21:38:13.554Z,87.44
2023-03-27T21:40:40.430Z,87.80
2023-03-27T21:43:08.409Z,87.95
2023-03-27T21:45:35.820Z,87.15
2023-03-27T21:48:02.510Z,87.18
2023-03-27T21:50:29.192Z,86.74
2023-03-27T21:52:55.931Z,86.04
2023-03-27T21:55:22.588Z,87.04
2023-03-27T21:57:49.459Z,87.24
2023-03-27T22:00:16.332Z,87.14
2023-03-27T22:02:43.117Z,86.88
2023-03-27T22:05:10.052Z,87.05
2023-03-27T22:07:36.791Z,86.94
2023-03-27T22:10:06.418Z,87.11
2023-03-27T22:12:36.740Z,87.65
2023-03-27T22:15:03.957Z,87.52
2023-03-27T22:17:30.632Z,87.03
2023-03-27T22:19:57.714Z,86.41
2023-03-27T22:22:24.957Z,86.51
2023-03-27T22:24:51.633Z,86.42
2023-03-27T22:27:18.384Z,87.47
2023-03-27T22:29:45.198Z,87.39
2023-03-27T22:32:11.818Z,86.78
2023-03-27T22:34:38.588Z,85.25
2023-03-27T22:37:06.593Z,85.67
2023-03-27T22:39:33.363Z,85.65
2023-03-27T22:42:00.063Z,86.13
2023-03-27T22:44:26.889Z,86.60
2023-03-27T22:46:53.634Z,87.53
2023-03-27T22:49:20.412Z,87.90
2023-03-27T22:51:47.007Z,88.18
2023-03-27T22:54:13.586Z,89.91
2023-03-27T22:56:40.303Z,88.37
2023-03-27T22:59:07.053Z,89.15
2023-03-27T23:01:33.700Z,88.76
2023-03-27T23:04:00.407Z,88.59
2023-03-27T23:06:27.080Z,87.59
2023-03-27T23:08:53.756Z,89.04
2023-03-27T23:11:20.666Z,89.95
2023-03-27T23:13:47.418Z,90.41
2023-03-27T23:16:14.141Z,92.33
2023-03-27T23:18:40.869Z,91.52
2023-03-27T23:21:09.298Z,89.90
2023-03-27T23:23:36.834Z,91.34
2023-03-27T23:26:04.295Z,90.88
2023-03-27T23:28:32.987Z,91.56
2023-03-27T23:31:21.455Z,92.35
2023-03-27T23:33:48.961Z,91.74
2023-03-27T23:36:17.450Z,90.65
2023-03-27T23:38:44.156Z,90.08
2023-03-27T23:41:14.056Z,88.74
2023-03-27T23:43:40.701Z,89.31
2023-03-27T23:46:13.346Z,89.93
2023-03-27T23:48:40.986Z,90.25
2023-03-27T23:51:08.119Z,89.28
2023-03-27T23:53:36.408Z,87.75
2023-03-27T23:56:03.385Z,87.82
2023-03-27T23:58:32.559Z,88.18
